sensor_id;sensor_type;location;lat;lon;timestamp;pressure;altitude;pressure_sealevel;temperature;humidity
72685;BME280;61365;52.162;4.500;2023-08-30T00:00:57;100778.09;;;17.00;65.91
72685;BME280;61365;52.162;4.500;2023-08-30T00:03:23;100776.44;;;16.95;66.23
72685;BME280;61365;52.162;4.500;2023-08-30T00:05:50;100768.75;;;16.86;66.10
72685;BME280;61365;52.162;4.500;2023-08-30T00:08:16;100771.59;;;16.78;66.21
72685;BME280;61365;52.162;4.500;2023-08-30T00:10:45;100766.91;;;16.88;66.39
72685;BME280;61365;52.162;4.500;2023-08-30T00:13:12;100758.00;;;16.91;66.37
72685;BME280;61365;52.162;4.500;2023-08-30T00:15:38;100757.22;;;16.87;66.64
72685;BME280;61365;52.162;4.500;2023-08-30T00:18:04;100754.69;;;16.83;66.82
72685;BME280;61365;52.162;4.500;2023-08-30T00:20:31;100757.25;;;16.86;66.78
72685;BME280;61365;52.162;4.500;2023-08-30T00:22:58;100749.22;;;16.89;66.59
72685;BME280;61365;52.162;4.500;2023-08-30T00:25:24;100757.25;;;16.86;66.99
72685;BME280;61365;52.162;4.500;2023-08-30T00:27:50;100750.38;;;16.80;67.15
72685;BME280;61365;52.162;4.500;2023-08-30T00:30:16;100743.09;;;16.87;67.12
72685;BME280;61365;52.162;4.500;2023-08-30T00:32:43;100744.16;;;16.81;67.35
72685;BME280;61365;52.162;4.500;2023-08-30T00:35:10;100749.38;;;16.83;67.68
72685;BME280;61365;52.162;4.500;2023-08-30T00:37:36;100744.91;;;16.85;67.67
72685;BME280;61365;52.162;4.500;2023-08-30T00:40:02;100736.03;;;16.87;67.46
72685;BME280;61365;52.162;4.500;2023-08-30T00:42:29;100738.47;;;16.93;67.77
72685;BME280;61365;52.162;4.500;2023-08-30T00:44:55;100734.22;;;16.89;68.11
72685;BME280;61365;52.162;4.500;2023-08-30T00:47:21;100745.06;;;16.80;68.68
72685;BME280;61365;52.162;4.500;2023-08-30T00:49:47;100736.19;;;16.81;68.98
72685;BME280;61365;52.162;4.500;2023-08-30T00:52:14;100734.53;;;16.77;68.70
72685;BME280;61365;52.162;4.500;2023-08-30T00:54:40;100729.31;;;16.74;69.07
72685;BME280;61365;52.162;4.500;2023-08-30T00:57:07;100729.19;;;16.78;68.89
72685;BME280;61365;52.162;4.500;2023-08-30T00:59:33;100728.28;;;16.79;68.94
72685;BME280;61365;52.162;4.500;2023-08-30T01:02:00;100725.50;;;16.84;68.78
72685;BME280;61365;52.162;4.500;2023-08-30T01:04:27;100717.41;;;16.89;68.56
72685;BME280;61365;52.162;4.500;2023-08-30T01:06:53;100715.75;;;16.85;68.81
72685;BME280;61365;52.162;4.500;2023-08-30T01:09:20;100721.94;;;16.85;68.68
72685;BME280;61365;52.162;4.500;2023-08-30T01:14:43;100715.47;;;16.97;68.75
72685;BME280;61365;52.162;4.500;2023-08-30T01:17:16;100711.97;;;16.93;68.61
72685;BME280;61365;52.162;4.500;2023-08-30T01:19:57;100713.09;;;16.86;68.79
72685;BME280;61365;52.162;4.500;2023-08-30T01:25:09;100704.50;;;16.78;69.44
72685;BME280;61365;52.162;4.500;2023-08-30T01:28:02;100709.69;;;16.81;69.09
72685;BME280;61365;52.162;4.500;2023-08-30T01:30:34;100701.78;;;16.79;69.22
72685;BME280;61365;52.162;4.500;2023-08-30T01:33:03;100700.00;;;16.80;69.38
72685;BME280;61365;52.162;4.500;2023-08-30T01:35:33;100697.28;;;16.83;69.54
72685;BME280;61365;52.162;4.500;2023-08-30T01:38:05;100689.31;;;16.83;69.47
72685;BME280;61365;52.162;4.500;2023-08-30T01:40:37;100696.69;;;16.73;69.67
72685;BME280;61365;52.162;4.500;2023-08-30T01:43:07;100699.75;;;16.58;70.21
72685;BME280;61365;52.162;4.500;2023-08-30T01:45:43;100690.25;;;16.50;70.71
72685;BME280;61365;52.162;4.500;2023-08-30T01:48:10;100696.50;;;16.48;71.77
72685;BME280;61365;52.162;4.500;2023-08-30T01:50:41;100695.38;;;16.57;71.67
72685;BME280;61365;52.162;4.500;2023-08-30T01:53:09;100687.41;;;16.57;71.41
72685;BME280;61365;52.162;4.500;2023-08-30T01:55:37;100683.03;;;16.56;71.68
72685;BME280;61365;52.162;4.500;2023-08-30T01:58:05;100679.69;;;16.49;71.63
72685;BME280;61365;52.162;4.500;2023-08-30T02:00:32;100689.22;;;16.55;71.91
72685;BME280;61365;52.162;4.500;2023-08-30T02:02:58;100681.50;;;16.47;71.92
72685;BME280;61365;52.162;4.500;2023-08-30T02:05:24;100679.53;;;16.55;71.46
72685;BME280;61365;52.162;4.500;2023-08-30T02:10:17;100673.78;;;16.39;72.07
72685;BME280;61365;52.162;4.500;2023-08-30T02:12:49;100669.69;;;16.60;71.61
72685;BME280;61365;52.162;4.500;2023-08-30T02:15:17;100671.59;;;16.54;71.37
72685;BME280;61365;52.162;4.500;2023-08-30T02:17:45;100672.91;;;16.70;71.61
72685;BME280;61365;52.162;4.500;2023-08-30T02:20:13;100667.06;;;16.59;71.40
72685;BME280;61365;52.162;4.500;2023-08-30T02:22:40;100663.50;;;16.60;71.36
72685;BME280;61365;52.162;4.500;2023-08-30T02:25:06;100658.28;;;16.57;71.88
72685;BME280;61365;52.162;4.500;2023-08-30T02:27:33;100651.31;;;16.54;71.46
72685;BME280;61365;52.162;4.500;2023-08-30T02:30:03;100652.13;;;16.56;72.11
72685;BME280;61365;52.162;4.500;2023-08-30T02:32:30;100658.09;;;16.64;71.82
72685;BME280;61365;52.162;4.500;2023-08-30T02:34:56;100652.88;;;16.61;72.00
72685;BME280;61365;52.162;4.500;2023-08-30T02:37:22;100645.09;;;16.55;72.36
72685;BME280;61365;52.162;4.500;2023-08-30T02:39:49;100646.91;;;16.53;72.61
72685;BME280;61365;52.162;4.500;2023-08-30T02:42:15;100640.97;;;16.45;72.59
72685;BME280;61365;52.162;4.500;2023-08-30T02:44:41;100642.28;;;16.60;72.50
72685;BME280;61365;52.162;4.500;2023-08-30T02:47:07;100641.03;;;16.42;72.68
72685;BME280;61365;52.162;4.500;2023-08-30T02:49:33;100632.44;;;16.65;72.64
72685;BME280;61365;52.162;4.500;2023-08-30T02:52:00;100633.25;;;16.67;71.60
72685;BME280;61365;52.162;4.500;2023-08-30T02:54:26;100629.63;;;16.70;71.55
72685;BME280;61365;52.162;4.500;2023-08-30T02:56:52;100621.91;;;16.63;71.31
72685;BME280;61365;52.162;4.500;2023-08-30T02:59:18;100610.59;;;16.57;71.61
72685;BME280;61365;52.162;4.500;2023-08-30T03:01:44;100618.44;;;16.60;72.14
72685;BME280;61365;52.162;4.500;2023-08-30T03:04:10;100612.53;;;16.51;72.00
72685;BME280;61365;52.162;4.500;2023-08-30T03:06:36;100604.03;;;16.40;72.56
72685;BME280;61365;52.162;4.500;2023-08-30T03:09:02;100600.63;;;16.35;72.83
72685;BME280;61365;52.162;4.500;2023-08-30T03:11:29;100605.16;;;16.31;72.82
72685;BME280;61365;52.162;4.500;2023-08-30T03:13:56;100610.75;;;16.20;73.15
72685;BME280;61365;52.162;4.500;2023-08-30T03:16:22;100605.69;;;16.13;73.25
72685;BME280;61365;52.162;4.500;2023-08-30T03:18:48;100596.47;;;16.26;73.04
72685;BME280;61365;52.162;4.500;2023-08-30T03:21:15;100592.66;;;16.05;73.75
72685;BME280;61365;52.162;4.500;2023-08-30T03:23:41;100599.06;;;15.96;74.29
72685;BME280;61365;52.162;4.500;2023-08-30T03:26:11;100586.81;;;15.94;73.96
72685;BME280;61365;52.162;4.500;2023-08-30T03:28:39;100583.34;;;15.90;74.29
72685;BME280;61365;52.162;4.500;2023-08-30T03:31:15;100572.13;;;15.80;74.73
72685;BME280;61365;52.162;4.500;2023-08-30T03:33:42;100572.53;;;15.65;74.93
72685;BME280;61365;52.162;4.500;2023-08-30T03:36:12;100571.63;;;15.66;75.34
72685;BME280;61365;52.162;4.500;2023-08-30T03:38:40;100574.75;;;15.80;74.88
72685;BME280;61365;52.162;4.500;2023-08-30T03:41:07;100572.88;;;15.87;73.63
72685;BME280;61365;52.162;4.500;2023-08-30T03:43:34;100574.63;;;15.88;73.37
72685;BME280;61365;52.162;4.500;2023-08-30T03:46:01;100575.22;;;15.98;73.63
72685;BME280;61365;52.162;4.500;2023-08-30T03:48:28;100570.09;;;15.91;72.77
72685;BME280;61365;52.162;4.500;2023-08-30T03:50:55;100565.97;;;15.80;72.76
72685;BME280;61365;52.162;4.500;2023-08-30T03:53:22;100566.75;;;15.83;72.50
72685;BME280;61365;52.162;4.500;2023-08-30T03:55:49;100573.03;;;15.79;72.73
72685;BME280;61365;52.162;4.500;2023-08-30T03:58:15;100574.34;;;15.63;73.28
72685;BME280;61365;52.162;4.500;2023-08-30T04:00:42;100569.41;;;15.50;74.20
72685;BME280;61365;52.162;4.500;2023-08-30T04:03:08;100569.28;;;15.55;73.86
72685;BME280;61365;52.162;4.500;2023-08-30T04:05:36;100563.31;;;15.46;73.72
72685;BME280;61365;52.162;4.500;2023-08-30T04:08:03;100558.09;;;15.43;74.12
72685;BME280;61365;52.162;4.500;2023-08-30T04:10:34;100561.78;;;15.38;74.40
72685;BME280;61365;52.162;4.500;2023-08-30T04:13:07;100548.69;;;15.31;75.05
72685;BME280;61365;52.162;4.500;2023-08-30T04:15:34;100549.72;;;15.26;75.60
72685;BME280;61365;52.162;4.500;2023-08-30T04:18:01;100558.63;;;15.23;75.26
72685;BME280;61365;52.162;4.500;2023-08-30T04:20:29;100551.75;;;15.16;75.48
72685;BME280;61365;52.162;4.500;2023-08-30T04:22:55;100555.44;;;15.09;76.17
72685;BME280;61365;52.162;4.500;2023-08-30T04:25:22;100551.06;;;15.08;76.25
72685;BME280;61365;52.162;4.500;2023-08-30T04:27:49;100542.66;;;14.90;76.60
72685;BME280;61365;52.162;4.500;2023-08-30T04:30:16;100545.44;;;14.85;77.03
72685;BME280;61365;52.162;4.500;2023-08-30T04:32:42;100539.91;;;14.95;76.66
72685;BME280;61365;52.162;4.500;2023-08-30T04:35:08;100533.50;;;15.05;76.18
72685;BME280;61365;52.162;4.500;2023-08-30T04:37:35;100534.81;;;14.87;76.25
72685;BME280;61365;52.162;4.500;2023-08-30T04:40:01;100527.22;;;14.73;77.25
72685;BME280;61365;52.162;4.500;2023-08-30T04:42:29;100524.03;;;14.57;77.51
72685;BME280;61365;52.162;4.500;2023-08-30T04:44:55;100516.91;;;14.61;77.15
72685;BME280;61365;52.162;4.500;2023-08-30T04:47:21;100522.16;;;14.62;77.52
72685;BME280;61365;52.162;4.500;2023-08-30T04:49:51;100520.41;;;14.61;77.17
72685;BME280;61365;52.162;4.500;2023-08-30T04:52:17;100518.00;;;14.50;77.54
72685;BME280;61365;52.162;4.500;2023-08-30T04:54:43;100523.47;;;14.43;78.09
72685;BME280;61365;52.162;4.500;2023-08-30T04:57:11;100531.66;;;14.71;77.31
72685;BME280;61365;52.162;4.500;2023-08-30T04:59:40;100532.66;;;14.65;76.95
72685;BME280;61365;52.162;4.500;2023-08-30T05:02:06;100531.66;;;14.73;77.19
72685;BME280;61365;52.162;4.500;2023-08-30T05:04:32;100539.59;;;14.71;76.67
72685;BME280;61365;52.162;4.500;2023-08-30T05:06:59;100543.53;;;14.91;76.65
72685;BME280;61365;52.162;4.500;2023-08-30T05:09:25;100545.19;;;14.95;76.51
72685;BME280;61365;52.162;4.500;2023-08-30T05:11:51;100550.03;;;15.13;76.54
72685;BME280;61365;52.162;4.500;2023-08-30T05:14:18;100543.84;;;15.14;76.84
72685;BME280;61365;52.162;4.500;2023-08-30T05:16:44;100544.84;;;15.09;78.10
72685;BME280;61365;52.162;4.500;2023-08-30T05:19:10;100545.66;;;15.12;78.19
72685;BME280;61365;52.162;4.500;2023-08-30T05:21:36;100540.53;;;15.06;78.96
72685;BME280;61365;52.162;4.500;2023-08-30T05:24:02;100536.34;;;14.97;80.50
72685;BME280;61365;52.162;4.500;2023-08-30T05:26:31;100543.56;;;14.89;81.41
72685;BME280;61365;52.162;4.500;2023-08-30T05:28:57;100534.22;;;14.74;82.04
72685;BME280;61365;52.162;4.500;2023-08-30T05:31:23;100532.53;;;14.71;83.54
72685;BME280;61365;52.162;4.500;2023-08-30T05:33:49;100524.84;;;14.59;83.83
72685;BME280;61365;52.162;4.500;2023-08-30T05:36:15;100522.22;;;14.59;84.31
72685;BME280;61365;52.162;4.500;2023-08-30T05:38:42;100520.47;;;14.60;84.84
72685;BME280;61365;52.162;4.500;2023-08-30T05:41:09;100521.25;;;14.63;84.82
72685;BME280;61365;52.162;4.500;2023-08-30T05:43:35;100519.09;;;14.41;85.29
72685;BME280;61365;52.162;4.500;2023-08-30T05:46:01;100520.09;;;14.36;85.84
72685;BME280;61365;52.162;4.500;2023-08-30T05:48:28;100518.16;;;14.44;86.13
72685;BME280;61365;52.162;4.500;2023-08-30T05:50:55;100512.19;;;14.36;86.29
72685;BME280;61365;52.162;4.500;2023-08-30T05:53:21;100509.63;;;14.31;87.43
72685;BME280;61365;52.162;4.500;2023-08-30T05:55:48;100512.63;;;14.14;87.95
72685;BME280;61365;52.162;4.500;2023-08-30T05:58:14;100503.78;;;14.17;88.16
72685;BME280;61365;52.162;4.500;2023-08-30T06:00:41;100501.28;;;14.10;89.02
72685;BME280;61365;52.162;4.500;2023-08-30T06:03:07;100494.25;;;14.09;89.65
72685;BME280;61365;52.162;4.500;2023-08-30T06:05:33;100482.19;;;13.99;90.39
72685;BME280;61365;52.162;4.500;2023-08-30T06:08:00;100475.28;;;13.92;91.30
72685;BME280;61365;52.162;4.500;2023-08-30T06:10:27;100472.44;;;14.03;91.50
72685;BME280;61365;52.162;4.500;2023-08-30T06:12:53;100478.94;;;13.86;92.35
72685;BME280;61365;52.162;4.500;2023-08-30T06:15:19;100471.03;;;13.86;92.69
72685;BME280;61365;52.162;4.500;2023-08-30T06:17:46;100468.41;;;13.85;93.14
72685;BME280;61365;52.162;4.500;2023-08-30T06:20:12;100463.97;;;13.87;92.86
72685;BME280;61365;52.162;4.500;2023-08-30T06:22:38;100465.81;;;13.81;92.85
72685;BME280;61365;52.162;4.500;2023-08-30T06:25:09;100465.88;;;13.78;93.09
72685;BME280;61365;52.162;4.500;2023-08-30T06:27:40;100463.50;;;13.66;93.78
72685;BME280;61365;52.162;4.500;2023-08-30T06:30:08;100475.38;;;13.87;93.82
72685;BME280;61365;52.162;4.500;2023-08-30T06:32:36;100470.25;;;13.79;92.98
72685;BME280;61365;52.162;4.500;2023-08-30T06:35:02;100464.69;;;13.95;92.38
72685;BME280;61365;52.162;4.500;2023-08-30T06:37:29;100458.34;;;14.04;91.97
72685;BME280;61365;52.162;4.500;2023-08-30T06:39:55;100466.44;;;13.94;92.44
72685;BME280;61365;52.162;4.500;2023-08-30T06:42:22;100467.09;;;14.06;92.86
72685;BME280;61365;52.162;4.500;2023-08-30T06:44:48;100472.00;;;14.21;92.66
72685;BME280;61365;52.162;4.500;2023-08-30T06:47:14;100467.50;;;14.26;92.02
72685;BME280;61365;52.162;4.500;2023-08-30T06:49:40;100460.25;;;13.97;92.33
72685;BME280;61365;52.162;4.500;2023-08-30T06:52:07;100461.16;;;13.94;92.62
72685;BME280;61365;52.162;4.500;2023-08-30T06:54:34;100457.06;;;13.79;93.00
72685;BME280;61365;52.162;4.500;2023-08-30T06:57:01;100447.91;;;13.98;93.25
72685;BME280;61365;52.162;4.500;2023-08-30T06:59:28;100447.78;;;14.04;93.00
72685;BME280;61365;52.162;4.500;2023-08-30T07:01:54;100449.28;;;14.14;92.40
72685;BME280;61365;52.162;4.500;2023-08-30T07:04:20;100441.59;;;14.05;92.69
72685;BME280;61365;52.162;4.500;2023-08-30T07:06:46;100446.06;;;14.01;93.64
72685;BME280;61365;52.162;4.500;2023-08-30T07:09:12;100427.16;;;14.21;93.16
72685;BME280;61365;52.162;4.500;2023-08-30T07:11:39;100433.13;;;14.30;93.21
72685;BME280;61365;52.162;4.500;2023-08-30T07:14:07;100416.53;;;14.24;93.26
72685;BME280;61365;52.162;4.500;2023-08-30T07:16:33;100413.84;;;14.26;93.48
72685;BME280;61365;52.162;4.500;2023-08-30T07:18:59;100419.63;;;14.42;94.01
72685;BME280;61365;52.162;4.500;2023-08-30T07:21:27;100429.91;;;14.54;92.68
72685;BME280;61365;52.162;4.500;2023-08-30T07:23:53;100422.00;;;14.54;92.33
72685;BME280;61365;52.162;4.500;2023-08-30T07:26:20;100415.31;;;14.76;90.85
72685;BME280;61365;52.162;4.500;2023-08-30T07:28:46;100417.28;;;14.67;91.11
72685;BME280;61365;52.162;4.500;2023-08-30T07:31:12;100423.47;;;14.66;91.57
72685;BME280;61365;52.162;4.500;2023-08-30T07:33:44;100426.13;;;14.65;91.78
72685;BME280;61365;52.162;4.500;2023-08-30T07:36:10;100421.16;;;14.52;91.87
72685;BME280;61365;52.162;4.500;2023-08-30T07:38:38;100419.88;;;14.70;91.71
72685;BME280;61365;52.162;4.500;2023-08-30T07:41:04;100415.22;;;14.80;91.09
72685;BME280;61365;52.162;4.500;2023-08-30T07:43:30;100413.16;;;14.92;90.78
72685;BME280;61365;52.162;4.500;2023-08-30T07:45:57;100399.41;;;14.79;91.11
72685;BME280;61365;52.162;4.500;2023-08-30T07:48:24;100408.75;;;14.92;89.82
72685;BME280;61365;52.162;4.500;2023-08-30T07:50:50;100393.13;;;14.84;89.97
72685;BME280;61365;52.162;4.500;2023-08-30T07:53:16;100401.03;;;14.84;90.43
72685;BME280;61365;52.162;4.500;2023-08-30T07:55:43;100397.50;;;14.85;90.09
72685;BME280;61365;52.162;4.500;2023-08-30T07:58:14;100396.53;;;14.88;90.55
72685;BME280;61365;52.162;4.500;2023-08-30T08:00:40;100397.38;;;14.90;89.82
72685;BME280;61365;52.162;4.500;2023-08-30T08:03:06;100398.94;;;14.97;90.61
72685;BME280;61365;52.162;4.500;2023-08-30T08:05:32;100399.06;;;14.93;90.18
72685;BME280;61365;52.162;4.500;2023-08-30T08:07:59;100403.03;;;15.09;90.19
72685;BME280;61365;52.162;4.500;2023-08-30T08:10:27;100398.94;;;14.97;89.78
72685;BME280;61365;52.162;4.500;2023-08-30T08:12:53;100398.66;;;15.08;89.92
72685;BME280;61365;52.162;4.500;2023-08-30T08:15:19;100401.63;;;15.29;89.95
72685;BME280;61365;52.162;4.500;2023-08-30T08:17:45;100395.44;;;15.30;89.12
72685;BME280;61365;52.162;4.500;2023-08-30T08:20:11;100393.38;;;15.40;88.89
72685;BME280;61365;52.162;4.500;2023-08-30T08:22:38;100389.75;;;15.44;88.29
72685;BME280;61365;52.162;4.500;2023-08-30T08:25:04;100392.69;;;15.33;88.69
72685;BME280;61365;52.162;4.500;2023-08-30T08:27:30;100390.66;;;15.43;88.56
72685;BME280;61365;52.162;4.500;2023-08-30T08:29:56;100400.34;;;15.74;88.33
72685;BME280;61365;52.162;4.500;2023-08-30T08:32:22;100398.41;;;15.81;86.83
72685;BME280;61365;52.162;4.500;2023-08-30T08:34:49;100389.88;;;15.71;87.00
72685;BME280;61365;52.162;4.500;2023-08-30T08:37:15;100421.31;;;16.12;87.19
72685;BME280;61365;52.162;4.500;2023-08-30T08:39:41;100410.38;;;16.23;86.16
72685;BME280;61365;52.162;4.500;2023-08-30T08:42:08;100397.47;;;16.40;83.69
72685;BME280;61365;52.162;4.500;2023-08-30T08:44:34;100412.53;;;17.19;80.87
72685;BME280;61365;52.162;4.500;2023-08-30T08:47:02;100410.09;;;17.38;80.81
72685;BME280;61365;52.162;4.500;2023-08-30T08:49:28;100398.91;;;17.77;79.07
72685;BME280;61365;52.162;4.500;2023-08-30T08:51:58;100404.41;;;17.95;76.89
72685;BME280;61365;52.162;4.500;2023-08-30T08:54:24;100411.38;;;18.43;75.05
72685;BME280;61365;52.162;4.500;2023-08-30T08:56:52;100414.72;;;19.14;73.54
72685;BME280;61365;52.162;4.500;2023-08-30T08:59:19;100424.25;;;19.78;69.97
72685;BME280;61365;52.162;4.500;2023-08-30T09:01:47;100419.47;;;20.06;70.56
72685;BME280;61365;52.162;4.500;2023-08-30T09:04:14;100424.31;;;19.77;67.75
72685;BME280;61365;52.162;4.500;2023-08-30T09:06:40;100415.91;;;20.24;65.52
72685;BME280;61365;52.162;4.500;2023-08-30T09:09:07;100426.38;;;19.91;66.36
72685;BME280;61365;52.162;4.500;2023-08-30T09:11:34;100433.09;;;20.36;65.65
72685;BME280;61365;52.162;4.500;2023-08-30T09:14:00;100427.63;;;20.76;63.78
72685;BME280;61365;52.162;4.500;2023-08-30T09:16:27;100436.22;;;20.27;66.76
72685;BME280;61365;52.162;4.500;2023-08-30T09:18:57;100438.00;;;20.63;63.48
72685;BME280;61365;52.162;4.500;2023-08-30T09:21:24;100434.91;;;20.36;66.59
72685;BME280;61365;52.162;4.500;2023-08-30T09:23:59;100430.91;;;20.64;63.95
72685;BME280;61365;52.162;4.500;2023-08-30T09:26:27;100432.44;;;20.31;65.59
72685;BME280;61365;52.162;4.500;2023-08-30T09:29:05;100430.75;;;20.30;63.76
72685;BME280;61365;52.162;4.500;2023-08-30T09:31:36;100437.53;;;19.99;65.43
72685;BME280;61365;52.162;4.500;2023-08-30T09:34:04;100437.97;;;20.28;64.27
72685;BME280;61365;52.162;4.500;2023-08-30T09:36:34;100426.16;;;21.06;61.85
72685;BME280;61365;52.162;4.500;2023-08-30T09:39:04;100429.81;;;21.38;62.66
72685;BME280;61365;52.162;4.500;2023-08-30T09:41:31;100427.91;;;20.70;62.97
72685;BME280;61365;52.162;4.500;2023-08-30T09:43:59;100436.19;;;21.18;61.02
72685;BME280;61365;52.162;4.500;2023-08-30T09:46:26;100439.31;;;20.91;58.21
72685;BME280;61365;52.162;4.500;2023-08-30T09:48:53;100433.75;;;20.22;59.02
72685;BME280;61365;52.162;4.500;2023-08-30T09:51:20;100437.97;;;20.09;57.95
72685;BME280;61365;52.162;4.500;2023-08-30T09:53:53;100430.75;;;20.30;58.78
72685;BME280;61365;52.162;4.500;2023-08-30T09:56:25;100437.44;;;20.20;58.85
72685;BME280;61365;52.162;4.500;2023-08-30T09:58:52;100442.28;;;19.72;59.76
72685;BME280;61365;52.162;4.500;2023-08-30T10:01:19;100445.69;;;19.75;60.59
72685;BME280;61365;52.162;4.500;2023-08-30T10:03:45;100436.59;;;20.00;62.38
72685;BME280;61365;52.162;4.500;2023-08-30T10:06:12;100440.63;;;20.09;60.22
72685;BME280;61365;52.162;4.500;2023-08-30T10:08:40;100439.03;;;20.24;59.19
72685;BME280;61365;52.162;4.500;2023-08-30T10:11:08;100448.72;;;20.44;59.02
72685;BME280;61365;52.162;4.500;2023-08-30T10:13:35;100439.19;;;20.58;59.86
72685;BME280;61365;52.162;4.500;2023-08-30T10:16:07;100439.72;;;21.19;57.63
72685;BME280;61365;52.162;4.500;2023-08-30T10:18:37;100439.75;;;20.64;59.47
72685;BME280;61365;52.162;4.500;2023-08-30T10:21:06;100443.34;;;20.63;59.84
72685;BME280;61365;52.162;4.500;2023-08-30T10:23:37;100450.31;;;21.20;56.48
72685;BME280;61365;52.162;4.500;2023-08-30T10:26:05;100447.88;;;20.98;56.06
72685;BME280;61365;52.162;4.500;2023-08-30T10:28:33;100448.28;;;20.53;56.27
72685;BME280;61365;52.162;4.500;2023-08-30T10:31:01;100443.19;;;20.10;58.21
72685;BME280;61365;52.162;4.500;2023-08-30T10:33:28;100441.75;;;20.78;58.50
72685;BME280;61365;52.162;4.500;2023-08-30T10:36:02;100450.88;;;21.09;57.87
72685;BME280;61365;52.162;4.500;2023-08-30T10:38:32;100460.69;;;21.60;56.68
72685;BME280;61365;52.162;4.500;2023-08-30T10:41:07;100453.09;;;21.35;53.80
72685;BME280;61365;52.162;4.500;2023-08-30T10:43:35;100461.84;;;21.21;53.70
72685;BME280;61365;52.162;4.500;2023-08-30T10:46:03;100473.06;;;21.27;53.97
72685;BME280;61365;52.162;4.500;2023-08-30T10:48:36;100460.56;;;21.28;53.34
72685;BME280;61365;52.162;4.500;2023-08-30T10:51:04;100470.47;;;21.26;52.48
72685;BME280;61365;52.162;4.500;2023-08-30T10:53:30;100471.56;;;21.04;52.75
72685;BME280;61365;52.162;4.500;2023-08-30T10:56:03;100470.94;;;20.81;53.39
72685;BME280;61365;52.162;4.500;2023-08-30T10:58:42;100469.06;;;21.36;52.77
72685;BME280;61365;52.162;4.500;2023-08-30T11:01:10;100482.00;;;21.44;53.02
72685;BME280;61365;52.162;4.500;2023-08-30T11:03:40;100480.09;;;21.64;53.55
72685;BME280;61365;52.162;4.500;2023-08-30T11:06:07;100482.50;;;21.86;52.88
72685;BME280;61365;52.162;4.500;2023-08-30T11:08:33;100471.28;;;21.79;51.51
72685;BME280;61365;52.162;4.500;2023-08-30T11:11:04;100464.88;;;22.31;51.68
72685;BME280;61365;52.162;4.500;2023-08-30T11:13:32;100472.09;;;22.29;51.56
72685;BME280;61365;52.162;4.500;2023-08-30T11:16:01;100473.81;;;22.14;51.31
72685;BME280;61365;52.162;4.500;2023-08-30T11:18:29;100473.91;;;22.61;48.68
72685;BME280;61365;52.162;4.500;2023-08-30T11:21:02;100473.41;;;22.54;46.85
72685;BME280;61365;52.162;4.500;2023-08-30T11:23:28;100463.16;;;22.62;50.55
72685;BME280;61365;52.162;4.500;2023-08-30T11:25:55;100470.81;;;22.69;49.69
72685;BME280;61365;52.162;4.500;2023-08-30T11:28:21;100467.53;;;22.79;48.31
72685;BME280;61365;52.162;4.500;2023-08-30T11:30:48;100473.38;;;22.86;48.37
72685;BME280;61365;52.162;4.500;2023-08-30T11:33:17;100480.91;;;22.63;49.75
72685;BME280;61365;52.162;4.500;2023-08-30T11:35:48;100470.72;;;22.70;50.08
72685;BME280;61365;52.162;4.500;2023-08-30T11:38:17;100472.78;;;22.81;48.01
72685;BME280;61365;52.162;4.500;2023-08-30T11:40:44;100478.69;;;22.56;49.49
72685;BME280;61365;52.162;4.500;2023-08-30T11:43:10;100489.91;;;22.46;51.12
72685;BME280;61365;52.162;4.500;2023-08-30T11:45:37;100485.56;;;22.12;53.77
72685;BME280;61365;52.162;4.500;2023-08-30T11:48:03;100487.50;;;22.08;56.21
72685;BME280;61365;52.162;4.500;2023-08-30T11:50:30;100497.25;;;22.09;55.72
72685;BME280;61365;52.162;4.500;2023-08-30T11:52:56;100494.31;;;21.98;55.88
72685;BME280;61365;52.162;4.500;2023-08-30T11:55:22;100498.59;;;22.18;55.90
72685;BME280;61365;52.162;4.500;2023-08-30T11:57:50;100507.28;;;22.22;55.18
72685;BME280;61365;52.162;4.500;2023-08-30T12:00:18;100504.97;;;21.82;55.63
72685;BME280;61365;52.162;4.500;2023-08-30T12:02:45;100512.72;;;21.86;56.54
72685;BME280;61365;52.162;4.500;2023-08-30T12:05:13;100508.56;;;22.14;56.77
72685;BME280;61365;52.162;4.500;2023-08-30T12:07:39;100500.59;;;22.46;54.81
72685;BME280;61365;52.162;4.500;2023-08-30T12:10:06;100496.34;;;22.74;53.36
72685;BME280;61365;52.162;4.500;2023-08-30T12:12:33;100501.75;;;22.89;54.71
72685;BME280;61365;52.162;4.500;2023-08-30T12:15:09;100505.22;;;23.21;52.58
72685;BME280;61365;52.162;4.500;2023-08-30T12:17:36;100503.13;;;22.96;53.02
72685;BME280;61365;52.162;4.500;2023-08-30T12:20:02;100499.31;;;23.00;53.41
72685;BME280;61365;52.162;4.500;2023-08-30T12:22:38;100512.75;;;22.68;53.10
72685;BME280;61365;52.162;4.500;2023-08-30T12:25:18;100508.22;;;22.85;50.00
72685;BME280;61365;52.162;4.500;2023-08-30T12:27:45;100512.88;;;22.17;53.75
72685;BME280;61365;52.162;4.500;2023-08-30T12:30:15;100519.47;;;21.94;55.51
72685;BME280;61365;52.162;4.500;2023-08-30T12:32:43;100521.97;;;21.63;54.12
72685;BME280;61365;52.162;4.500;2023-08-30T12:35:12;100529.44;;;20.84;55.74
72685;BME280;61365;52.162;4.500;2023-08-30T12:37:38;100526.00;;;20.63;57.08
72685;BME280;61365;52.162;4.500;2023-08-30T12:40:05;100525.13;;;20.82;58.20
72685;BME280;61365;52.162;4.500;2023-08-30T12:42:32;100524.06;;;20.67;57.86
72685;BME280;61365;52.162;4.500;2023-08-30T12:44:59;100522.44;;;21.19;55.05
72685;BME280;61365;52.162;4.500;2023-08-30T12:47:25;100523.19;;;21.03;55.77
72685;BME280;61365;52.162;4.500;2023-08-30T12:49:51;100524.53;;;20.56;59.96
72685;BME280;61365;52.162;4.500;2023-08-30T12:52:18;100524.53;;;20.75;59.27
72685;BME280;61365;52.162;4.500;2023-08-30T12:54:44;100528.31;;;21.25;57.71
72685;BME280;61365;52.162;4.500;2023-08-30T12:57:10;100537.38;;;20.86;57.24
72685;BME280;61365;52.162;4.500;2023-08-30T12:59:36;100534.66;;;20.49;57.89